Terminal Aerodrome Forecast
Issued by NWS

Home | Current Version | Previous Version | Text Only | Print | Product List | Glossary On
Versions: 1 2 3 4 5 6 7 8 9 10 11 12 13 14 15 16 17 18 19 20 21 22 23 24 25 26 27 28 29 30 31 32 33 34 35 36 37 38
000
FTUS41 KRNK 241141
TAFBCB
TAF
KBCB 241141Z 2412/2512 00000KT P6SM SCT040 BKN100
     FM241700 29005KT P6SM VCTS BKN040CB
     FM242200 31006KT P6SM BKN050
     FM250800 00000KT 1/2SM FG OVC001=

USA.gov is the U.S. government's official web portal to all federal, state and local government web resources and services.